LSGG METAR and TAF | Updated Today

LSGG METAR

Geneva Cointrin International Airport

Observation time: 8 min. ago

LSGG 062120Z VRB01KT 9999 FEW045 13/12 Q1029 NOSIG

Need help? Read our tutorial on how to read METARs or read the parsed version below.

Geneva Cointrin International Airport (LSGG) METAR

  • Weather conditions on Thu, 06 Oct 2022 21:20:00 +0000 (8 min. ago):
  • Present conditions: Dry
  • Clouds: A few at 1372 meters
  • Visibility: Greater than 10 km
  • Wind: Variable at 1 knots
  • Temperature: 13 celsius
  • Dew point: 12 celsius
  • Pressure: 1029 millibars
  • Remarks: None


Useful to know...

LSGG TAF

Geneva Cointrin International Airport

TAF LSGG 062025Z 0621/0803 VRB02KT 9999 FEW040 TX21/0715Z TN10/0705Z PROB30 TEMPO 0704/0710 BKN012 TEMPO 0712/0718 23012KT
Observation time: 63 min. ago
Need help? Read our tutorial on how to read TAFs or read the parsed version below.

Parsed version of TAF for Geneva Cointrin International Airport (LSGG)

  • From 06 October at 21:00 UTC, to day 08 of the month at 03:00 UTC
  • Clouds: A few at 1219 meters
  • Visibility: Greater than 10 km
  • Wind: Variable at 2
  • Expected to arise temporarily, from 07 October at 04:00 UTC, to day 07 of the month at 10:00 UTC
    Probability of 30%
  • Clouds: Broken sky at 366 meters
  • Expected to arise temporarily, from 07 October at 12:00 UTC, to day 07 of the month at 18:00 UTC
  • Wind: 230 degrees at 12